Startpagina
METAR-TAF:

METAR-TAF

Vliegvelden :

Internationale luchthaven van Nouakchott

Nouakchott, Mauritanië

breedte: 18-18-36N, lengte: 015-58-11W, hoogte: 3 m

Actueel weer

Dit bericht is 36 minuten geleden gemaakt, om 21:30 UTC
Wind 15 kt uit het noordwesten
Temperatuur 25°C
Vochtigheid 79%
Druk 1010 hPa
Zicht: 8000 m

METAR: GQNO 182130Z 32015KT 8000 NSC 25/21 Q1010 NOSIG

Tijdstip: 22:06 (22:06 UTC)

Verwachting

Dit bericht is 4 uur en het 6 minuten geleden gemaakt, om 18:00 UTC
Verwachting geldig van 18 om 18 UTC tot 19 om 24 UTC
Wind 16 kt uit het westnoordwesten
Zicht: 7000 m

TAF: GQNO 181800Z 1818/1924 30016KT 7000 NSC

Waarnemingen en weersverwachtingen van meer dan 4000 vliegvelden (METAR en TAF).

De beschikbare stations zijn de gele en rode punten op de kaart.

Ga met uw muis naar het station om de naam te zien.

Klik dan om waarnemingen en weersverwachtingen te zien.

kaart wijzigen: klik op de groene knoppen met een zwart kruis om in te zoomen, op de groene knop met een streepje om uit te zoomen of op de groene pijlen voor aangrenzende kaarten.


METAR-TAF: